sensor_id;sensor_type;location;lat;lon;timestamp;pressure;altitude;pressure_sealevel;temperature;humidity
1371;BME280;14306;49.942;11.570;2022-12-05T00:02:08;97224.81;;;6.43;89.37
1371;BME280;14306;49.942;11.570;2022-12-05T00:04:36;97241.72;;;6.49;89.57
1371;BME280;14306;49.942;11.570;2022-12-05T00:07:05;97241.03;;;6.67;88.05
1371;BME280;14306;49.942;11.570;2022-12-05T00:09:33;97236.59;;;6.52;88.15
1371;BME280;14306;49.942;11.570;2022-12-05T00:12:02;97233.59;;;6.54;88.78
1371;BME280;14306;49.942;11.570;2022-12-05T00:14:30;97245.13;;;6.59;88.83
1371;BME280;14306;49.942;11.570;2022-12-05T00:17:00;97249.38;;;6.65;88.96
1371;BME280;14306;49.942;11.570;2022-12-05T00:19:28;97250.41;;;6.69;87.81
1371;BME280;14306;49.942;11.570;2022-12-05T00:21:57;97252.63;;;6.62;88.78
1371;BME280;14306;49.942;11.570;2022-12-05T00:24:25;97254.72;;;6.70;87.71
1371;BME280;14306;49.942;11.570;2022-12-05T00:26:53;97250.47;;;6.64;89.06
1371;BME280;14306;49.942;11.570;2022-12-05T00:29:22;97259.25;;;6.75;89.26
1371;BME280;14306;49.942;11.570;2022-12-05T00:31:50;97246.00;;;6.50;90.09
1371;BME280;14306;49.942;11.570;2022-12-05T00:34:20;97248.25;;;6.43;91.19
1371;BME280;14306;49.942;11.570;2022-12-05T00:36:48;97253.06;;;6.74;90.57
1371;BME280;14306;49.942;11.570;2022-12-05T00:39:17;97255.25;;;6.72;90.08
1371;BME280;14306;49.942;11.570;2022-12-05T00:41:45;97260.66;;;6.67;91.19
1371;BME280;14306;49.942;11.570;2022-12-05T00:44:13;97257.25;;;6.85;90.22
1371;BME280;14306;49.942;11.570;2022-12-05T00:46:41;97265.25;;;6.95;90.64
1371;BME280;14306;49.942;11.570;2022-12-05T00:49:11;97266.63;;;7.16;89.68
1371;BME280;14306;49.942;11.570;2022-12-05T00:51:42;97276.44;;;7.07;89.92
1371;BME280;14306;49.942;11.570;2022-12-05T00:54:13;97266.69;;;7.11;90.22
1371;BME280;14306;49.942;11.570;2022-12-05T00:56:42;97270.84;;;6.99;90.06
1371;BME280;14306;49.942;11.570;2022-12-05T00:59:15;97263.81;;;7.03;89.91
1371;BME280;14306;49.942;11.570;2022-12-05T01:01:44;97265.75;;;6.97;90.68
1371;BME280;14306;49.942;11.570;2022-12-05T01:04:14;97265.63;;;6.84;89.97
1371;BME280;14306;49.942;11.570;2022-12-05T01:06:45;97262.16;;;7.07;90.29
1371;BME280;14306;49.942;11.570;2022-12-05T01:09:15;97268.97;;;6.99;90.49
1371;BME280;14306;49.942;11.570;2022-12-05T01:11:43;97272.91;;;6.83;91.33
1371;BME280;14306;49.942;11.570;2022-12-05T01:14:13;97274.16;;;6.91;90.01
1371;BME280;14306;49.942;11.570;2022-12-05T01:16:43;97271.13;;;6.69;91.05
1371;BME280;14306;49.942;11.570;2022-12-05T01:19:14;97272.00;;;6.93;90.72
1371;BME280;14306;49.942;11.570;2022-12-05T01:21:45;97285.88;;;7.05;89.35
1371;BME280;14306;49.942;11.570;2022-12-05T01:24:15;97294.44;;;6.83;89.96
1371;BME280;14306;49.942;11.570;2022-12-05T01:26:44;97294.81;;;7.00;90.32
1371;BME280;14306;49.942;11.570;2022-12-05T01:29:13;97301.50;;;6.74;89.60
1371;BME280;14306;49.942;11.570;2022-12-05T01:31:42;97311.00;;;6.95;89.58
1371;BME280;14306;49.942;11.570;2022-12-05T01:34:12;97303.22;;;6.94;90.11
1371;BME280;14306;49.942;11.570;2022-12-05T01:36:42;97312.69;;;7.15;89.30
1371;BME280;14306;49.942;11.570;2022-12-05T01:39:12;97288.28;;;6.78;89.32
1371;BME280;14306;49.942;11.570;2022-12-05T01:41:42;97319.88;;;6.96;89.55
1371;BME280;14306;49.942;11.570;2022-12-05T01:47:17;97312.38;;;6.93;90.17
1371;BME280;14306;49.942;11.570;2022-12-05T01:49:46;97309.69;;;6.93;90.63
1371;BME280;14306;49.942;11.570;2022-12-05T01:52:17;97320.81;;;6.81;90.30
1371;BME280;14306;49.942;11.570;2022-12-05T01:54:54;97317.72;;;6.98;90.60
1371;BME280;14306;49.942;11.570;2022-12-05T01:57:24;97318.78;;;6.68;92.12
1371;BME280;14306;49.942;11.570;2022-12-05T02:00:01;97325.03;;;6.59;91.57
1371;BME280;14306;49.942;11.570;2022-12-05T02:02:30;97317.78;;;6.93;91.92
1371;BME280;14306;49.942;11.570;2022-12-05T02:05:04;97318.28;;;6.95;91.54
1371;BME280;14306;49.942;11.570;2022-12-05T02:07:32;97305.44;;;7.15;89.33
1371;BME280;14306;49.942;11.570;2022-12-05T02:10:04;97305.66;;;7.19;89.79
1371;BME280;14306;49.942;11.570;2022-12-05T02:12:33;97299.94;;;7.25;88.77
1371;BME280;14306;49.942;11.570;2022-12-05T02:15:16;97323.75;;;6.85;91.87
1371;BME280;14306;49.942;11.570;2022-12-05T02:17:54;97318.78;;;6.68;92.05
1371;BME280;14306;49.942;11.570;2022-12-05T02:20:34;97323.38;;;6.96;91.69
1371;BME280;14306;49.942;11.570;2022-12-05T02:23:41;97318.19;;;6.71;93.04
1371;BME280;14306;49.942;11.570;2022-12-05T02:26:42;97321.63;;;6.82;92.50
1371;BME280;14306;49.942;11.570;2022-12-05T02:32:29;97338.16;;;7.27;90.73
1371;BME280;14306;49.942;11.570;2022-12-05T02:35:07;97339.50;;;7.53;89.35
1371;BME280;14306;49.942;11.570;2022-12-05T02:37:40;97332.63;;;7.42;89.69
1371;BME280;14306;49.942;11.570;2022-12-05T02:40:14;97333.03;;;7.02;91.41
1371;BME280;14306;49.942;11.570;2022-12-05T02:42:52;97340.66;;;7.19;91.41
1371;BME280;14306;49.942;11.570;2022-12-05T02:45:23;97345.84;;;6.82;91.32
1371;BME280;14306;49.942;11.570;2022-12-05T02:47:54;97338.53;;;6.87;93.06
1371;BME280;14306;49.942;11.570;2022-12-05T02:50:26;97347.28;;;7.03;91.66
1371;BME280;14306;49.942;11.570;2022-12-05T02:52:59;97341.28;;;7.11;91.73
1371;BME280;14306;49.942;11.570;2022-12-05T02:55:30;97351.81;;;7.36;90.83
1371;BME280;14306;49.942;11.570;2022-12-05T02:58:02;97346.50;;;7.02;91.74
1371;BME280;14306;49.942;11.570;2022-12-05T03:00:34;97351.22;;;7.15;92.04
1371;BME280;14306;49.942;11.570;2022-12-05T03:03:12;97347.75;;;7.10;91.39
1371;BME280;14306;49.942;11.570;2022-12-05T03:05:46;97354.09;;;6.90;90.85
1371;BME280;14306;49.942;11.570;2022-12-05T03:08:18;97358.72;;;7.18;91.85
1371;BME280;14306;49.942;11.570;2022-12-05T03:10:50;97351.81;;;7.07;90.54
1371;BME280;14306;49.942;11.570;2022-12-05T03:13:24;97361.41;;;6.90;91.94
1371;BME280;14306;49.942;11.570;2022-12-05T03:15:56;97351.63;;;6.99;91.57
1371;BME280;14306;49.942;11.570;2022-12-05T03:18:28;97354.25;;;7.04;90.95
1371;BME280;14306;49.942;11.570;2022-12-05T03:20:59;97357.88;;;6.94;91.28
1371;BME280;14306;49.942;11.570;2022-12-05T03:23:32;97360.47;;;6.71;91.89
1371;BME280;14306;49.942;11.570;2022-12-05T03:26:05;97349.66;;;6.76;91.95
1371;BME280;14306;49.942;11.570;2022-12-05T03:28:48;97355.41;;;6.64;92.03
1371;BME280;14306;49.942;11.570;2022-12-05T03:31:39;97357.03;;;6.60;92.58
1371;BME280;14306;49.942;11.570;2022-12-05T03:34:15;97364.25;;;6.65;92.18
1371;BME280;14306;49.942;11.570;2022-12-05T03:36:48;97352.25;;;6.52;93.59
1371;BME280;14306;49.942;11.570;2022-12-05T03:39:22;97360.78;;;6.59;92.67
1371;BME280;14306;49.942;11.570;2022-12-05T03:41:57;97366.44;;;6.58;92.76
1371;BME280;14306;49.942;11.570;2022-12-05T03:44:31;97366.25;;;6.49;92.47
1371;BME280;14306;49.942;11.570;2022-12-05T03:47:05;97354.66;;;6.54;93.35
1371;BME280;14306;49.942;11.570;2022-12-05T03:49:40;97368.41;;;6.52;93.50
1371;BME280;14306;49.942;11.570;2022-12-05T03:52:13;97363.88;;;6.43;92.56
1371;BME280;14306;49.942;11.570;2022-12-05T03:54:45;97372.81;;;6.33;93.55
1371;BME280;14306;49.942;11.570;2022-12-05T03:57:19;97371.63;;;6.49;93.10
1371;BME280;14306;49.942;11.570;2022-12-05T03:59:53;97378.66;;;6.40;93.39
1371;BME280;14306;49.942;11.570;2022-12-05T04:02:29;97379.78;;;6.34;93.69
1371;BME280;14306;49.942;11.570;2022-12-05T04:05:03;97373.88;;;6.32;93.91
1371;BME280;14306;49.942;11.570;2022-12-05T04:07:34;97376.06;;;6.25;94.38
1371;BME280;14306;49.942;11.570;2022-12-05T04:10:09;97380.63;;;6.30;94.33
1371;BME280;14306;49.942;11.570;2022-12-05T04:12:40;97384.00;;;6.50;93.69
1371;BME280;14306;49.942;11.570;2022-12-05T04:15:14;97376.88;;;6.26;93.79
1371;BME280;14306;49.942;11.570;2022-12-05T04:17:46;97393.28;;;6.24;94.12
1371;BME280;14306;49.942;11.570;2022-12-05T04:20:24;97358.06;;;6.26;94.70
1371;BME280;14306;49.942;11.570;2022-12-05T04:23:10;97379.63;;;6.59;93.81
1371;BME280;14306;49.942;11.570;2022-12-05T04:25:48;97377.09;;;6.34;94.25
1371;BME280;14306;49.942;11.570;2022-12-05T04:28:25;97369.53;;;6.41;93.92
1371;BME280;14306;49.942;11.570;2022-12-05T04:31:01;97364.81;;;6.62;93.58
1371;BME280;14306;49.942;11.570;2022-12-05T04:33:35;97375.56;;;6.67;93.24
1371;BME280;14306;49.942;11.570;2022-12-05T04:36:12;97373.19;;;6.55;93.41
1371;BME280;14306;49.942;11.570;2022-12-05T04:38:44;97393.16;;;6.49;94.08
1371;BME280;14306;49.942;11.570;2022-12-05T04:41:19;97388.66;;;6.35;94.57
1371;BME280;14306;49.942;11.570;2022-12-05T04:43:51;97382.41;;;6.44;94.32
1371;BME280;14306;49.942;11.570;2022-12-05T04:46:22;97373.59;;;6.34;94.40
1371;BME280;14306;49.942;11.570;2022-12-05T04:48:55;97377.09;;;6.34;93.75
1371;BME280;14306;49.942;11.570;2022-12-05T04:51:29;97397.84;;;6.29;94.73
1371;BME280;14306;49.942;11.570;2022-12-05T04:54:03;97396.78;;;6.25;94.78
1371;BME280;14306;49.942;11.570;2022-12-05T04:56:35;97369.44;;;6.13;94.19
1371;BME280;14306;49.942;11.570;2022-12-05T04:59:04;97402.19;;;6.63;94.77
1371;BME280;14306;49.942;11.570;2022-12-05T05:01:34;97408.78;;;6.86;93.48
1371;BME280;14306;49.942;11.570;2022-12-05T05:04:07;97400.97;;;6.51;92.83
1371;BME280;14306;49.942;11.570;2022-12-05T05:06:38;97416.69;;;6.67;92.74
1371;BME280;14306;49.942;11.570;2022-12-05T05:09:06;97412.72;;;6.60;92.80
1371;BME280;14306;49.942;11.570;2022-12-05T05:11:35;97434.19;;;6.70;93.54
1371;BME280;14306;49.942;11.570;2022-12-05T05:14:04;97421.69;;;6.40;93.67
1371;BME280;14306;49.942;11.570;2022-12-05T05:16:34;97428.59;;;6.61;94.37
1371;BME280;14306;49.942;11.570;2022-12-05T05:19:04;97432.06;;;6.62;93.88
1371;BME280;14306;49.942;11.570;2022-12-05T05:21:34;97439.75;;;6.40;94.69
1371;BME280;14306;49.942;11.570;2022-12-05T05:24:06;97439.00;;;6.73;93.74
1371;BME280;14306;49.942;11.570;2022-12-05T05:26:36;97442.84;;;6.62;93.77
1371;BME280;14306;49.942;11.570;2022-12-05T05:29:06;97443.06;;;6.70;93.57
1371;BME280;14306;49.942;11.570;2022-12-05T05:31:35;97453.69;;;6.95;92.62
1371;BME280;14306;49.942;11.570;2022-12-05T05:34:05;97459.25;;;7.09;92.92
1371;BME280;14306;49.942;11.570;2022-12-05T05:36:36;97442.41;;;6.88;93.33
1371;BME280;14306;49.942;11.570;2022-12-05T05:39:11;97458.19;;;7.05;92.50
1371;BME280;14306;49.942;11.570;2022-12-05T05:41:39;97446.16;;;6.92;93.00
1371;BME280;14306;49.942;11.570;2022-12-05T05:44:08;97444.28;;;6.88;93.15
1371;BME280;14306;49.942;11.570;2022-12-05T05:46:36;97445.00;;;7.03;93.37
1371;BME280;14306;49.942;11.570;2022-12-05T05:49:05;97451.16;;;6.65;94.25
1371;BME280;14306;49.942;11.570;2022-12-05T05:51:33;97440.44;;;6.99;93.37
1371;BME280;14306;49.942;11.570;2022-12-05T05:54:01;97446.72;;;6.89;93.57
1371;BME280;14306;49.942;11.570;2022-12-05T05:56:31;97445.16;;;6.83;94.00
1371;BME280;14306;49.942;11.570;2022-12-05T05:59:01;97456.38;;;6.95;93.88
1371;BME280;14306;49.942;11.570;2022-12-05T06:01:30;97457.41;;;6.99;92.91
1371;BME280;14306;49.942;11.570;2022-12-05T06:03:58;97463.75;;;6.75;93.86
1371;BME280;14306;49.942;11.570;2022-12-05T06:06:27;97448.31;;;6.90;94.25
1371;BME280;14306;49.942;11.570;2022-12-05T06:08:55;97469.56;;;6.92;93.69
1371;BME280;14306;49.942;11.570;2022-12-05T06:11:26;97457.41;;;6.99;93.26
1371;BME280;14306;49.942;11.570;2022-12-05T06:13:56;97461.66;;;7.10;93.66
1371;BME280;14306;49.942;11.570;2022-12-05T06:16:27;97464.53;;;7.19;92.62
1371;BME280;14306;49.942;11.570;2022-12-05T06:18:56;97467.81;;;7.16;92.64
1371;BME280;14306;49.942;11.570;2022-12-05T06:21:25;97473.91;;;7.26;92.64
1371;BME280;14306;49.942;11.570;2022-12-05T06:23:54;97485.84;;;7.15;92.99
1371;BME280;14306;49.942;11.570;2022-12-05T06:26:23;97465.13;;;7.16;93.15
1371;BME280;14306;49.942;11.570;2022-12-05T06:28:52;97466.00;;;7.40;92.93
1371;BME280;14306;49.942;11.570;2022-12-05T06:31:23;97472.56;;;7.29;92.67
1371;BME280;14306;49.942;11.570;2022-12-05T06:33:54;97487.44;;;7.16;93.08
1371;BME280;14306;49.942;11.570;2022-12-05T06:36:23;97464.97;;;6.97;93.18
1371;BME280;14306;49.942;11.570;2022-12-05T06:38:52;97487.81;;;7.05;92.61
1371;BME280;14306;49.942;11.570;2022-12-05T06:41:21;97485.22;;;6.90;93.39
1371;BME280;14306;49.942;11.570;2022-12-05T06:43:51;97496.75;;;6.90;93.02
1371;BME280;14306;49.942;11.570;2022-12-05T06:46:29;97488.41;;;6.97;92.38
1371;BME280;14306;49.942;11.570;2022-12-05T06:48:58;97511.00;;;7.01;92.32
1371;BME280;14306;49.942;11.570;2022-12-05T06:51:26;97502.19;;;6.85;92.69
1371;BME280;14306;49.942;11.570;2022-12-05T06:53:55;97513.75;;;6.86;92.73
1371;BME280;14306;49.942;11.570;2022-12-05T06:56:23;97520.13;;;7.05;92.50
1371;BME280;14306;49.942;11.570;2022-12-05T06:58:52;97520.16;;;6.95;92.23
1371;BME280;14306;49.942;11.570;2022-12-05T07:01:23;97527.94;;;7.01;92.22
1371;BME280;14306;49.942;11.570;2022-12-05T07:04:10;97532.59;;;6.86;91.80
1371;BME280;14306;49.942;11.570;2022-12-05T07:06:40;97532.06;;;6.89;92.42
1371;BME280;14306;49.942;11.570;2022-12-05T07:09:17;97523.09;;;7.03;92.37
1371;BME280;14306;49.942;11.570;2022-12-05T07:11:46;97532.16;;;7.17;90.95
1371;BME280;14306;49.942;11.570;2022-12-05T07:14:15;97540.19;;;7.22;91.20
1371;BME280;14306;49.942;11.570;2022-12-05T07:17:04;97535.50;;;6.99;90.88
1371;BME280;14306;49.942;11.570;2022-12-05T07:19:34;97533.06;;;6.98;90.89
1371;BME280;14306;49.942;11.570;2022-12-05T07:22:03;97543.25;;;7.06;90.45
1371;BME280;14306;49.942;11.570;2022-12-05T07:24:39;97536.97;;;7.25;89.90
1371;BME280;14306;49.942;11.570;2022-12-05T07:27:07;97543.81;;;7.03;90.32
1371;BME280;14306;49.942;11.570;2022-12-05T07:29:36;97550.06;;;6.93;91.22
1371;BME280;14306;49.942;11.570;2022-12-05T07:32:05;97551.97;;;6.93;90.76
1371;BME280;14306;49.942;11.570;2022-12-05T07:34:35;97558.41;;;6.92;90.07
1371;BME280;14306;49.942;11.570;2022-12-05T07:37:04;97546.50;;;7.03;91.12
1371;BME280;14306;49.942;11.570;2022-12-05T07:39:34;97552.06;;;7.16;90.55
1371;BME280;14306;49.942;11.570;2022-12-05T07:42:03;97562.13;;;7.01;90.52
1371;BME280;14306;49.942;11.570;2022-12-05T07:44:31;97555.13;;;7.05;90.54
1371;BME280;14306;49.942;11.570;2022-12-05T07:47:01;97567.31;;;6.87;90.29
1371;BME280;14306;49.942;11.570;2022-12-05T07:49:29;97563.47;;;7.03;90.25
1371;BME280;14306;49.942;11.570;2022-12-05T07:51:59;97572.38;;;6.99;91.94
1371;BME280;14306;49.942;11.570;2022-12-05T07:54:27;97566.53;;;6.82;90.50
1371;BME280;14306;49.942;11.570;2022-12-05T07:56:56;97563.25;;;6.95;90.78
1371;BME280;14306;49.942;11.570;2022-12-05T07:59:24;97568.28;;;7.11;90.04
1371;BME280;14306;49.942;11.570;2022-12-05T08:01:53;97568.09;;;6.93;90.48
1371;BME280;14306;49.942;11.570;2022-12-05T08:04:22;97572.47;;;6.79;90.70
1371;BME280;14306;49.942;11.570;2022-12-05T08:06:50;97583.41;;;6.97;90.93
1371;BME280;14306;49.942;11.570;2022-12-05T08:09:20;97587.72;;;6.98;90.26
1371;BME280;14306;49.942;11.570;2022-12-05T08:11:49;97603.06;;;6.98;90.81
1371;BME280;14306;49.942;11.570;2022-12-05T08:14:19;97596.41;;;6.80;90.89
1371;BME280;14306;49.942;11.570;2022-12-05T08:16:48;97597.50;;;6.74;91.02
1371;BME280;14306;49.942;11.570;2022-12-05T08:19:17;97595.94;;;6.58;91.38
1371;BME280;14306;49.942;11.570;2022-12-05T08:21:46;97603.69;;;6.75;91.06
1371;BME280;14306;49.942;11.570;2022-12-05T08:24:14;97609.91;;;6.75;89.66
1371;BME280;14306;49.942;11.570;2022-12-05T08:26:44;97610.41;;;6.77;91.24
1371;BME280;14306;49.942;11.570;2022-12-05T08:29:14;97612.28;;;6.77;90.00
1371;BME280;14306;49.942;11.570;2022-12-05T08:31:44;97616.38;;;6.64;90.71
1371;BME280;14306;49.942;11.570;2022-12-05T08:34:15;97615.56;;;6.64;91.06
1371;BME280;14306;49.942;11.570;2022-12-05T08:36:45;97624.13;;;6.86;90.11
1371;BME280;14306;49.942;11.570;2022-12-05T08:39:15;97628.28;;;6.33;91.95
1371;BME280;14306;49.942;11.570;2022-12-05T08:41:47;97631.22;;;6.52;91.26
1371;BME280;14306;49.942;11.570;2022-12-05T08:44:15;97632.78;;;6.68;90.49
1371;BME280;14306;49.942;11.570;2022-12-05T08:46:46;97631.06;;;6.92;90.30
1371;BME280;14306;49.942;11.570;2022-12-05T08:49:16;97628.63;;;7.00;89.54
1371;BME280;14306;49.942;11.570;2022-12-05T08:51:45;97635.44;;;6.83;90.31
1371;BME280;14306;49.942;11.570;2022-12-05T08:54:15;97642.66;;;6.92;89.42
1371;BME280;14306;49.942;11.570;2022-12-05T08:56:45;97634.63;;;6.87;89.64
1371;BME280;14306;49.942;11.570;2022-12-05T08:59:17;97639.97;;;6.92;89.87
1371;BME280;14306;49.942;11.570;2022-12-05T09:01:48;97647.44;;;7.05;88.55
1371;BME280;14306;49.942;11.570;2022-12-05T09:04:17;97647.19;;;7.07;88.99
1371;BME280;14306;49.942;11.570;2022-12-05T09:06:45;97660.34;;;7.18;89.20
1371;BME280;14306;49.942;11.570;2022-12-05T09:09:15;97657.69;;;7.03;90.09
1371;BME280;14306;49.942;11.570;2022-12-05T09:11:43;97663.63;;;7.00;89.22
1371;BME280;14306;49.942;11.570;2022-12-05T09:14:16;97665.56;;;6.80;89.72
1371;BME280;14306;49.942;11.570;2022-12-05T09:16:46;97668.81;;;6.82;89.87
1371;BME280;14306;49.942;11.570;2022-12-05T09:19:15;97666.72;;;6.59;90.44
1371;BME280;14306;49.942;11.570;2022-12-05T09:21:45;97670.47;;;6.63;90.88
1371;BME280;14306;49.942;11.570;2022-12-05T09:24:13;97678.50;;;6.73;90.94
1371;BME280;14306;49.942;11.570;2022-12-05T09:26:43;97671.00;;;6.65;90.61
1371;BME280;14306;49.942;11.570;2022-12-05T09:29:12;97674.50;;;6.60;90.79
1371;BME280;14306;49.942;11.570;2022-12-05T09:31:46;97679.91;;;6.60;91.20
1371;BME280;14306;49.942;11.570;2022-12-05T09:34:17;97691.72;;;6.64;91.10
1371;BME280;14306;49.942;11.570;2022-12-05T09:36:46;97690.94;;;6.49;92.40
1371;BME280;14306;49.942;11.570;2022-12-05T09:39:36;97695.47;;;6.73;91.47
1371;BME280;14306;49.942;11.570;2022-12-05T09:42:17;97698.16;;;6.63;91.57
1371;BME280;14306;49.942;11.570;2022-12-05T09:45:03;97694.97;;;6.36;91.64
1371;BME280;14306;49.942;11.570;2022-12-05T09:47:44;97703.03;;;6.61;91.40
1371;BME280;14306;49.942;11.570;2022-12-05T09:50:18;97705.72;;;6.46;91.11
1371;BME280;14306;49.942;11.570;2022-12-05T09:52:58;97693.34;;;6.40;91.34
1371;BME280;14306;49.942;11.570;2022-12-05T09:55:33;97697.94;;;6.45;91.18
1371;BME280;14306;49.942;11.570;2022-12-05T09:58:04;97707.06;;;6.39;91.62
1371;BME280;14306;49.942;11.570;2022-12-05T10:00:39;97709.75;;;6.49;90.82
1371;BME280;14306;49.942;11.570;2022-12-05T10:03:20;97709.47;;;6.55;90.95
1371;BME280;14306;49.942;11.570;2022-12-05T10:05:57;97704.06;;;6.80;89.77
1371;BME280;14306;49.942;11.570;2022-12-05T10:08:33;97703.19;;;7.05;89.08
1371;BME280;14306;49.942;11.570;2022-12-05T10:11:10;97707.59;;;6.71;90.05
1371;BME280;14306;49.942;11.570;2022-12-05T10:13:47;97711.34;;;6.75;90.31
1371;BME280;14306;49.942;11.570;2022-12-05T10:16:27;97700.31;;;6.71;90.79
1371;BME280;14306;49.942;11.570;2022-12-05T10:19:02;97699.78;;;6.69;90.14
1371;BME280;14306;49.942;11.570;2022-12-05T10:21:35;97696.84;;;6.56;91.09
1371;BME280;14306;49.942;11.570;2022-12-05T10:24:09;97699.25;;;6.57;91.00
1371;BME280;14306;49.942;11.570;2022-12-05T10:26:42;97711.09;;;6.66;91.04
1371;BME280;14306;49.942;11.570;2022-12-05T10:29:19;97695.75;;;6.62;90.46
1371;BME280;14306;49.942;11.570;2022-12-05T10:31:54;97694.38;;;6.74;91.57
1371;BME280;14306;49.942;11.570;2022-12-05T10:34:30;97697.88;;;6.75;90.37
1371;BME280;14306;49.942;11.570;2022-12-05T10:37:04;97681.91;;;7.08;90.34
1371;BME280;14306;49.942;11.570;2022-12-05T10:39:37;97687.38;;;6.83;90.09
1371;BME280;14306;49.942;11.570;2022-12-05T10:42:08;97687.56;;;7.12;90.15
1371;BME280;14306;49.942;11.570;2022-12-05T10:44:38;97684.31;;;7.20;90.35
1371;BME280;14306;49.942;11.570;2022-12-05T10:47:07;97682.34;;;7.35;90.06
1371;BME280;14306;49.942;11.570;2022-12-05T10:49:37;97684.72;;;7.42;88.73
1371;BME280;14306;49.942;11.570;2022-12-05T10:52:06;97672.09;;;7.37;89.79
1371;BME280;14306;49.942;11.570;2022-12-05T10:54:42;97682.34;;;7.35;90.03
1371;BME280;14306;49.942;11.570;2022-12-05T10:57:21;97685.72;;;7.61;89.87
1371;BME280;14306;49.942;11.570;2022-12-05T10:59:50;97674.69;;;7.57;89.11
1371;BME280;14306;49.942;11.570;2022-12-05T11:02:23;97675.59;;;7.38;89.46
1371;BME280;14306;49.942;11.570;2022-12-05T11:04:54;97671.84;;;7.34;88.75
1371;BME280;14306;49.942;11.570;2022-12-05T11:07:28;97674.19;;;7.50;90.07
1371;BME280;14306;49.942;11.570;2022-12-05T11:10:00;97665.91;;;7.37;89.11
1371;BME280;14306;49.942;11.570;2022-12-05T11:12:35;97686.63;;;7.36;89.75
1371;BME280;14306;49.942;11.570;2022-12-05T11:15:19;97678.69;;;7.65;89.58
1371;BME280;14306;49.942;11.570;2022-12-05T11:17:54;97679.38;;;7.37;89.66
1371;BME280;14306;49.942;11.570;2022-12-05T11:20:37;97681.47;;;7.50;89.67
1371;BME280;14306;49.942;11.570;2022-12-05T11:23:24;97662.16;;;7.33;89.29
1371;BME280;14306;49.942;11.570;2022-12-05T11:25:53;97666.31;;;7.59;88.11
1371;BME280;14306;49.942;11.570;2022-12-05T11:28:29;97666.91;;;7.51;88.76
1371;BME280;14306;49.942;11.570;2022-12-05T11:30:59;97680.44;;;7.41;88.98
1371;BME280;14306;49.942;11.570;2022-12-05T11:33:30;97673.19;;;7.31;88.43
1371;BME280;14306;49.942;11.570;2022-12-05T11:36:04;97668.88;;;7.40;88.04
1371;BME280;14306;49.942;11.570;2022-12-05T11:38:34;97666.66;;;7.47;87.87
1371;BME280;14306;49.942;11.570;2022-12-05T11:41:16;97685.22;;;7.54;86.85
1371;BME280;14306;49.942;11.570;2022-12-05T11:44:03;97678.81;;;7.40;87.35
1371;BME280;14306;49.942;11.570;2022-12-05T11:46:48;97669.63;;;7.46;87.64
1371;BME280;14306;49.942;11.570;2022-12-05T11:49:36;97674.56;;;7.29;87.04
1371;BME280;14306;49.942;11.570;2022-12-05T11:52:19;97677.84;;;7.11;86.66
1371;BME280;14306;49.942;11.570;2022-12-05T11:54:54;97655.38;;;6.72;88.28
1371;BME280;14306;49.942;11.570;2022-12-05T11:57:56;97653.72;;;6.86;88.41
1371;BME280;14306;49.942;11.570;2022-12-05T12:00:32;97669.00;;;7.10;88.26
1371;BME280;14306;49.942;11.570;2022-12-05T12:03:28;97678.38;;;7.18;87.53
1371;BME280;14306;49.942;11.570;2022-12-05T12:06:14;97673.06;;;6.98;88.20
1371;BME280;14306;49.942;11.570;2022-12-05T12:08:58;97679.31;;;6.78;87.67
1371;BME280;14306;49.942;11.570;2022-12-05T12:11:38;97670.41;;;6.83;88.56
1371;BME280;14306;49.942;11.570;2022-12-05T12:14:14;97671.28;;;6.58;88.40
1371;BME280;14306;49.942;11.570;2022-12-05T12:16:53;97675.84;;;6.58;88.61
1371;BME280;14306;49.942;11.570;2022-12-05T12:19:47;97673.38;;;6.91;89.17
1371;BME280;14306;49.942;11.570;2022-12-05T12:22:43;97675.84;;;6.58;88.68
1371;BME280;14306;49.942;11.570;2022-12-05T12:25:36;97673.94;;;6.63;89.19
1371;BME280;14306;49.942;11.570;2022-12-05T12:28:21;97681.53;;;6.56;90.30
1371;BME280;14306;49.942;11.570;2022-12-05T12:31:04;97676.41;;;6.55;89.93
1371;BME280;14306;49.942;11.570;2022-12-05T12:33:36;97667.03;;;6.22;89.41
1371;BME280;14306;49.942;11.570;2022-12-05T12:36:14;97666.47;;;6.35;89.79
1371;BME280;14306;49.942;11.570;2022-12-05T12:38:58;97667.53;;;6.39;89.18
1371;BME280;14306;49.942;11.570;2022-12-05T12:41:58;97677.22;;;6.35;90.18
1371;BME280;14306;49.942;11.570;2022-12-05T12:45:14;97665.94;;;6.23;90.03
1371;BME280;14306;49.942;11.570;2022-12-05T12:47:58;97664.59;;;6.11;90.02
1371;BME280;14306;49.942;11.570;2022-12-05T12:50:32;97642.81;;;5.87;90.56
1371;BME280;14306;49.942;11.570;2022-12-05T12:53:30;97676.94;;;5.92;90.66
1371;BME280;14306;49.942;11.570;2022-12-05T12:56:13;97647.66;;;6.05;90.26
1371;BME280;14306;49.942;11.570;2022-12-05T12:58:50;97666.75;;;6.29;90.36
1371;BME280;14306;49.942;11.570;2022-12-05T13:01:30;97656.25;;;6.22;88.70
1371;BME280;14306;49.942;11.570;2022-12-05T13:04:04;97656.53;;;6.21;90.11
1371;BME280;14306;49.942;11.570;2022-12-05T13:06:44;97642.00;;;5.92;89.74
1371;BME280;14306;49.942;11.570;2022-12-05T13:09:20;97656.00;;;5.94;90.14
1371;BME280;14306;49.942;11.570;2022-12-05T13:11:51;97649.53;;;6.15;89.01
1371;BME280;14306;49.942;11.570;2022-12-05T13:14:25;97647.09;;;6.13;90.26
1371;BME280;14306;49.942;11.570;2022-12-05T13:16:57;97641.97;;;6.42;88.64
1371;BME280;14306;49.942;11.570;2022-12-05T13:19:40;97659.75;;;6.43;88.45
1371;BME280;14306;49.942;11.570;2022-12-05T13:22:11;97660.81;;;6.42;88.25
1371;BME280;14306;49.942;11.570;2022-12-05T13:24:41;97650.88;;;6.37;88.10
1371;BME280;14306;49.942;11.570;2022-12-05T13:27:17;97656.75;;;6.54;88.36
1371;BME280;14306;49.942;11.570;2022-12-05T13:29:52;97658.34;;;6.65;88.23
1371;BME280;14306;49.942;11.570;2022-12-05T13:32:33;97646.00;;;6.49;88.65
1371;BME280;14306;49.942;11.570;2022-12-05T13:35:17;97655.94;;;6.64;88.21
1371;BME280;14306;49.942;11.570;2022-12-05T13:38:05;97664.31;;;6.42;89.22
1371;BME280;14306;49.942;11.570;2022-12-05T13:40:52;97665.34;;;6.66;88.63
1371;BME280;14306;49.942;11.570;2022-12-05T13:43:41;97670.97;;;6.75;87.71
1371;BME280;14306;49.942;11.570;2022-12-05T13:46:26;97669.16;;;6.20;89.40
1371;BME280;14306;49.942;11.570;2022-12-05T13:48:59;97671.03;;;5.95;90.50
1371;BME280;14306;49.942;11.570;2022-12-05T13:51:34;97681.25;;;6.18;89.57